sensor_id;sensor_type;location;lat;lon;timestamp;temperature;humidity
64961;SHT31;51487;52.266;10.542;2023-02-11T00:00:38;4.65;83.48
64961;SHT31;51487;52.266;10.542;2023-02-11T00:03:03;4.62;83.59
64961;SHT31;51487;52.266;10.542;2023-02-11T00:05:29;4.64;83.73
64961;SHT31;51487;52.266;10.542;2023-02-11T00:07:54;4.60;84.01
64961;SHT31;51487;52.266;10.542;2023-02-11T00:10:20;4.69;83.84
64961;SHT31;51487;52.266;10.542;2023-02-11T00:12:46;4.76;83.71
64961;SHT31;51487;52.266;10.542;2023-02-11T00:15:11;4.86;83.74
64961;SHT31;51487;52.266;10.542;2023-02-11T00:17:36;4.82;83.99
64961;SHT31;51487;52.266;10.542;2023-02-11T00:20:02;4.76;84.22
64961;SHT31;51487;52.266;10.542;2023-02-11T00:22:28;4.86;83.94
64961;SHT31;51487;52.266;10.542;2023-02-11T00:24:53;4.83;84.23
64961;SHT31;51487;52.266;10.542;2023-02-11T00:27:21;4.89;84.57
64961;SHT31;51487;52.266;10.542;2023-02-11T00:29:47;4.97;84.78
64961;SHT31;51487;52.266;10.542;2023-02-11T00:32:12;4.99;84.94
64961;SHT31;51487;52.266;10.542;2023-02-11T00:34:38;5.16;84.94
64961;SHT31;51487;52.266;10.542;2023-02-11T00:37:04;5.27;85.31
64961;SHT31;51487;52.266;10.542;2023-02-11T00:39:30;5.36;85.14
64961;SHT31;51487;52.266;10.542;2023-02-11T00:41:56;5.46;85.53
64961;SHT31;51487;52.266;10.542;2023-02-11T00:44:22;5.52;85.49
64961;SHT31;51487;52.266;10.542;2023-02-11T00:46:48;5.65;85.04
64961;SHT31;51487;52.266;10.542;2023-02-11T00:49:13;5.67;85.38
64961;SHT31;51487;52.266;10.542;2023-02-11T00:51:39;5.72;85.15
64961;SHT31;51487;52.266;10.542;2023-02-11T00:54:05;5.88;84.93
64961;SHT31;51487;52.266;10.542;2023-02-11T00:56:30;5.92;84.78
64961;SHT31;51487;52.266;10.542;2023-02-11T00:58:57;5.91;84.94
64961;SHT31;51487;52.266;10.542;2023-02-11T01:01:22;5.97;84.78
64961;SHT31;51487;52.266;10.542;2023-02-11T01:03:48;6.01;84.70
64961;SHT31;51487;52.266;10.542;2023-02-11T01:06:14;6.01;84.86
64961;SHT31;51487;52.266;10.542;2023-02-11T01:08:40;6.02;84.92
64961;SHT31;51487;52.266;10.542;2023-02-11T01:11:14;6.09;84.77
64961;SHT31;51487;52.266;10.542;2023-02-11T01:13:40;6.15;84.77
64961;SHT31;51487;52.266;10.542;2023-02-11T01:16:08;6.15;84.93
64961;SHT31;51487;52.266;10.542;2023-02-11T01:18:35;6.15;84.99
64961;SHT31;51487;52.266;10.542;2023-02-11T01:21:01;6.20;84.90
64961;SHT31;51487;52.266;10.542;2023-02-11T01:23:27;6.25;85.02
64961;SHT31;51487;52.266;10.542;2023-02-11T01:25:53;6.20;85.06
64961;SHT31;51487;52.266;10.542;2023-02-11T01:28:22;6.23;85.16
64961;SHT31;51487;52.266;10.542;2023-02-11T01:30:49;6.19;85.46
64961;SHT31;51487;52.266;10.542;2023-02-11T01:33:15;6.22;85.68
64961;SHT31;51487;52.266;10.542;2023-02-11T01:35:42;6.20;85.67
64961;SHT31;51487;52.266;10.542;2023-02-11T01:38:15;6.19;85.89
64961;SHT31;51487;52.266;10.542;2023-02-11T01:40:51;6.23;85.98
64961;SHT31;51487;52.266;10.542;2023-02-11T01:43:17;6.20;86.19
64961;SHT31;51487;52.266;10.542;2023-02-11T01:48:20;6.23;86.59
64961;SHT31;51487;52.266;10.542;2023-02-11T01:50:50;6.20;86.87
64961;SHT31;51487;52.266;10.542;2023-02-11T01:53:17;6.20;87.00
64961;SHT31;51487;52.266;10.542;2023-02-11T01:56:02;6.18;86.94
64961;SHT31;51487;52.266;10.542;2023-02-11T01:58:50;6.15;87.28
64961;SHT31;51487;52.266;10.542;2023-02-11T02:01:21;6.25;86.78
64961;SHT31;51487;52.266;10.542;2023-02-11T02:03:53;6.20;87.15
64961;SHT31;51487;52.266;10.542;2023-02-11T02:07:04;6.16;87.37
64961;SHT31;51487;52.266;10.542;2023-02-11T02:09:38;6.22;87.34
64961;SHT31;51487;52.266;10.542;2023-02-11T02:12:06;6.19;87.50
64961;SHT31;51487;52.266;10.542;2023-02-11T02:14:31;6.18;87.74
64961;SHT31;51487;52.266;10.542;2023-02-11T02:16:57;6.25;87.77
64961;SHT31;51487;52.266;10.542;2023-02-11T02:20:09;6.23;88.02
64961;SHT31;51487;52.266;10.542;2023-02-11T02:23:18;6.23;88.07
64961;SHT31;51487;52.266;10.542;2023-02-11T02:30:15;6.28;88.17
64961;SHT31;51487;52.266;10.542;2023-02-11T02:33:12;6.29;88.39
64961;SHT31;51487;52.266;10.542;2023-02-11T02:38:56;6.25;88.83
64961;SHT31;51487;52.266;10.542;2023-02-11T02:41:29;6.22;89.07
64961;SHT31;51487;52.266;10.542;2023-02-11T02:43:56;6.16;89.28
64961;SHT31;51487;52.266;10.542;2023-02-11T02:46:28;6.28;89.15
64961;SHT31;51487;52.266;10.542;2023-02-11T02:48:55;6.25;89.18
64961;SHT31;51487;52.266;10.542;2023-02-11T03:00:54;6.28;89.35
64961;SHT31;51487;52.266;10.542;2023-02-11T03:03:42;6.22;89.52
64961;SHT31;51487;52.266;10.542;2023-02-11T03:06:55;6.23;89.42
64961;SHT31;51487;52.266;10.542;2023-02-11T03:09:47;6.25;89.61
64961;SHT31;51487;52.266;10.542;2023-02-11T03:12:15;6.26;89.77
64961;SHT31;51487;52.266;10.542;2023-02-11T03:14:42;6.25;89.89
64961;SHT31;51487;52.266;10.542;2023-02-11T03:17:09;6.28;89.90
64961;SHT31;51487;52.266;10.542;2023-02-11T03:19:42;6.22;90.19
64961;SHT31;51487;52.266;10.542;2023-02-11T03:22:17;6.29;90.23
64961;SHT31;51487;52.266;10.542;2023-02-11T03:24:45;6.32;90.11
64961;SHT31;51487;52.266;10.542;2023-02-11T03:27:19;6.25;90.37
64961;SHT31;51487;52.266;10.542;2023-02-11T03:32:40;6.28;90.43
64961;SHT31;51487;52.266;10.542;2023-02-11T03:35:15;6.22;90.59
64961;SHT31;51487;52.266;10.542;2023-02-11T03:40:35;6.19;90.97
64961;SHT31;51487;52.266;10.542;2023-02-11T03:43:09;6.25;90.86
64961;SHT31;51487;52.266;10.542;2023-02-11T03:45:37;6.22;90.83
64961;SHT31;51487;52.266;10.542;2023-02-11T03:48:11;6.25;90.93
64961;SHT31;51487;52.266;10.542;2023-02-11T03:50:40;6.22;91.13
64961;SHT31;51487;52.266;10.542;2023-02-11T03:53:09;6.23;91.14
64961;SHT31;51487;52.266;10.542;2023-02-11T03:55:38;6.28;90.99
64961;SHT31;51487;52.266;10.542;2023-02-11T03:58:05;6.25;91.02
64961;SHT31;51487;52.266;10.542;2023-02-11T04:00:37;6.36;90.90
64961;SHT31;51487;52.266;10.542;2023-02-11T04:03:04;6.26;91.44
64961;SHT31;51487;52.266;10.542;2023-02-11T04:05:31;6.30;91.32
64961;SHT31;51487;52.266;10.542;2023-02-11T04:07:57;6.36;91.29
64961;SHT31;51487;52.266;10.542;2023-02-11T04:10:23;6.30;91.37
64961;SHT31;51487;52.266;10.542;2023-02-11T04:12:48;6.30;91.78
64961;SHT31;51487;52.266;10.542;2023-02-11T04:15:14;6.23;92.29
64961;SHT31;51487;52.266;10.542;2023-02-11T04:17:39;6.29;92.29
64961;SHT31;51487;52.266;10.542;2023-02-11T04:20:06;6.26;92.53
64961;SHT31;51487;52.266;10.542;2023-02-11T04:22:31;6.19;92.81
64961;SHT31;51487;52.266;10.542;2023-02-11T04:24:57;6.22;92.83
64961;SHT31;51487;52.266;10.542;2023-02-11T04:27:22;6.18;93.05
64961;SHT31;51487;52.266;10.542;2023-02-11T04:29:48;6.15;93.24
64961;SHT31;51487;52.266;10.542;2023-02-11T04:32:14;6.18;93.33
64961;SHT31;51487;52.266;10.542;2023-02-11T04:34:40;6.30;93.06
64961;SHT31;51487;52.266;10.542;2023-02-11T04:37:06;6.33;93.14
64961;SHT31;51487;52.266;10.542;2023-02-11T04:39:33;6.23;93.48
64961;SHT31;51487;52.266;10.542;2023-02-11T04:41:58;6.20;93.70
64961;SHT31;51487;52.266;10.542;2023-02-11T04:44:24;6.12;94.38
64961;SHT31;51487;52.266;10.542;2023-02-11T04:46:50;6.05;94.50
64961;SHT31;51487;52.266;10.542;2023-02-11T04:49:16;6.13;94.62
64961;SHT31;51487;52.266;10.542;2023-02-11T04:51:42;6.20;94.49
64961;SHT31;51487;52.266;10.542;2023-02-11T04:54:10;6.13;94.77
64961;SHT31;51487;52.266;10.542;2023-02-11T04:56:36;6.20;94.86
64961;SHT31;51487;52.266;10.542;2023-02-11T04:59:02;6.10;95.28
64961;SHT31;51487;52.266;10.542;2023-02-11T05:01:28;6.06;95.59
64961;SHT31;51487;52.266;10.542;2023-02-11T05:03:53;6.13;95.58
64961;SHT31;51487;52.266;10.542;2023-02-11T05:06:19;6.05;95.77
64961;SHT31;51487;52.266;10.542;2023-02-11T05:08:45;6.15;95.47
64961;SHT31;51487;52.266;10.542;2023-02-11T05:11:17;6.02;95.83
64961;SHT31;51487;52.266;10.542;2023-02-11T05:13:42;6.03;95.81
64961;SHT31;51487;52.266;10.542;2023-02-11T05:16:09;6.09;95.63
64961;SHT31;51487;52.266;10.542;2023-02-11T05:18:39;6.09;95.58
64961;SHT31;51487;52.266;10.542;2023-02-11T05:21:07;6.08;95.80
64961;SHT31;51487;52.266;10.542;2023-02-11T05:23:34;6.06;95.78
64961;SHT31;51487;52.266;10.542;2023-02-11T05:26:00;6.12;95.73
64961;SHT31;51487;52.266;10.542;2023-02-11T05:28:26;6.06;95.77
64961;SHT31;51487;52.266;10.542;2023-02-11T05:30:51;6.08;95.63
64961;SHT31;51487;52.266;10.542;2023-02-11T05:33:17;6.13;95.59
64961;SHT31;51487;52.266;10.542;2023-02-11T05:35:42;6.10;95.59
64961;SHT31;51487;52.266;10.542;2023-02-11T05:38:08;6.02;95.84
64961;SHT31;51487;52.266;10.542;2023-02-11T05:40:33;6.02;95.95
64961;SHT31;51487;52.266;10.542;2023-02-11T05:42:59;6.10;95.57
64961;SHT31;51487;52.266;10.542;2023-02-11T05:45:25;6.16;95.19
64961;SHT31;51487;52.266;10.542;2023-02-11T05:47:50;6.09;95.42
64961;SHT31;51487;52.266;10.542;2023-02-11T05:50:16;6.13;95.42
64961;SHT31;51487;52.266;10.542;2023-02-11T05:52:41;6.16;95.24
64961;SHT31;51487;52.266;10.542;2023-02-11T05:55:07;6.18;94.94
64961;SHT31;51487;52.266;10.542;2023-02-11T05:57:33;6.26;94.77
64961;SHT31;51487;52.266;10.542;2023-02-11T05:59:58;6.25;94.70
64961;SHT31;51487;52.266;10.542;2023-02-11T06:02:24;6.13;94.74
64961;SHT31;51487;52.266;10.542;2023-02-11T06:04:49;6.23;94.79
64961;SHT31;51487;52.266;10.542;2023-02-11T06:07:14;6.23;94.68
64961;SHT31;51487;52.266;10.542;2023-02-11T06:09:41;6.20;94.33
64961;SHT31;51487;52.266;10.542;2023-02-11T06:12:07;6.23;94.33
64961;SHT31;51487;52.266;10.542;2023-02-11T06:14:33;6.22;94.54
64961;SHT31;51487;52.266;10.542;2023-02-11T06:16:59;6.28;94.27
64961;SHT31;51487;52.266;10.542;2023-02-11T06:19:24;6.36;93.75
64961;SHT31;51487;52.266;10.542;2023-02-11T06:21:50;6.39;93.52
64961;SHT31;51487;52.266;10.542;2023-02-11T06:24:16;6.43;93.33
64961;SHT31;51487;52.266;10.542;2023-02-11T06:26:41;6.40;93.48
64961;SHT31;51487;52.266;10.542;2023-02-11T06:29:07;6.39;93.29
64961;SHT31;51487;52.266;10.542;2023-02-11T06:31:32;6.49;93.14
64961;SHT31;51487;52.266;10.542;2023-02-11T06:33:58;6.43;93.08
64961;SHT31;51487;52.266;10.542;2023-02-11T06:36:23;6.39;93.62
64961;SHT31;51487;52.266;10.542;2023-02-11T06:38:51;6.49;93.39
64961;SHT31;51487;52.266;10.542;2023-02-11T06:41:18;6.46;92.99
64961;SHT31;51487;52.266;10.542;2023-02-11T06:43:47;6.46;93.14
64961;SHT31;51487;52.266;10.542;2023-02-11T06:46:14;6.47;93.26
64961;SHT31;51487;52.266;10.542;2023-02-11T06:48:40;6.40;93.35
64961;SHT31;51487;52.266;10.542;2023-02-11T06:51:10;6.51;93.04
64961;SHT31;51487;52.266;10.542;2023-02-11T06:53:41;6.37;93.47
64961;SHT31;51487;52.266;10.542;2023-02-11T06:56:10;6.53;93.25
64961;SHT31;51487;52.266;10.542;2023-02-11T06:58:36;6.58;92.90
64961;SHT31;51487;52.266;10.542;2023-02-11T07:01:07;6.57;93.04
64961;SHT31;51487;52.266;10.542;2023-02-11T07:03:35;6.50;92.95
64961;SHT31;51487;52.266;10.542;2023-02-11T07:06:03;6.56;92.91
64961;SHT31;51487;52.266;10.542;2023-02-11T07:08:31;6.51;93.13
64961;SHT31;51487;52.266;10.542;2023-02-11T07:10:57;6.73;92.47
64961;SHT31;51487;52.266;10.542;2023-02-11T07:13:22;6.70;92.41
64961;SHT31;51487;52.266;10.542;2023-02-11T07:15:48;6.64;92.49
64961;SHT31;51487;52.266;10.542;2023-02-11T07:18:14;6.63;92.67
64961;SHT31;51487;52.266;10.542;2023-02-11T07:20:40;6.76;92.55
64961;SHT31;51487;52.266;10.542;2023-02-11T07:23:05;6.70;92.54
64961;SHT31;51487;52.266;10.542;2023-02-11T07:25:31;6.80;92.12
64961;SHT31;51487;52.266;10.542;2023-02-11T07:27:56;6.74;92.38
64961;SHT31;51487;52.266;10.542;2023-02-11T07:30:22;6.76;92.20
64961;SHT31;51487;52.266;10.542;2023-02-11T07:32:48;6.77;92.21
64961;SHT31;51487;52.266;10.542;2023-02-11T07:35:13;6.76;91.96
64961;SHT31;51487;52.266;10.542;2023-02-11T07:37:39;6.76;92.13
64961;SHT31;51487;52.266;10.542;2023-02-11T07:40:07;6.80;92.07
64961;SHT31;51487;52.266;10.542;2023-02-11T07:42:35;6.83;91.88
64961;SHT31;51487;52.266;10.542;2023-02-11T07:45:01;6.84;91.72
64961;SHT31;51487;52.266;10.542;2023-02-11T07:47:27;6.78;92.05
64961;SHT31;51487;52.266;10.542;2023-02-11T07:49:53;6.84;91.82
64961;SHT31;51487;52.266;10.542;2023-02-11T07:52:18;6.97;91.46
64961;SHT31;51487;52.266;10.542;2023-02-11T07:54:44;6.95;91.43
64961;SHT31;51487;52.266;10.542;2023-02-11T07:57:10;6.99;91.23
64961;SHT31;51487;52.266;10.542;2023-02-11T07:59:35;6.88;91.24
64961;SHT31;51487;52.266;10.542;2023-02-11T08:02:01;6.91;91.42
64961;SHT31;51487;52.266;10.542;2023-02-11T08:04:26;7.02;91.14
64961;SHT31;51487;52.266;10.542;2023-02-11T08:06:52;6.99;91.17
64961;SHT31;51487;52.266;10.542;2023-02-11T08:09:20;6.92;91.55
64961;SHT31;51487;52.266;10.542;2023-02-11T08:11:45;6.92;91.53
64961;SHT31;51487;52.266;10.542;2023-02-11T08:14:11;7.08;91.34
64961;SHT31;51487;52.266;10.542;2023-02-11T08:16:37;6.99;91.41
64961;SHT31;51487;52.266;10.542;2023-02-11T08:19:08;7.01;91.67
64961;SHT31;51487;52.266;10.542;2023-02-11T08:21:34;6.99;91.57
64961;SHT31;51487;52.266;10.542;2023-02-11T08:24:01;7.15;91.25
64961;SHT31;51487;52.266;10.542;2023-02-11T08:26:29;7.12;91.13
64961;SHT31;51487;52.266;10.542;2023-02-11T08:28:57;7.19;90.99
64961;SHT31;51487;52.266;10.542;2023-02-11T08:31:33;7.11;91.40
64961;SHT31;51487;52.266;10.542;2023-02-11T08:34:00;7.11;91.57
64961;SHT31;51487;52.266;10.542;2023-02-11T08:36:30;7.12;91.68
64961;SHT31;51487;52.266;10.542;2023-02-11T08:39:02;7.19;91.38
64961;SHT31;51487;52.266;10.542;2023-02-11T08:41:30;7.14;91.56
64961;SHT31;51487;52.266;10.542;2023-02-11T08:43:57;7.23;91.25
64961;SHT31;51487;52.266;10.542;2023-02-11T08:46:23;7.20;91.46
64961;SHT31;51487;52.266;10.542;2023-02-11T08:48:49;7.22;91.67
64961;SHT31;51487;52.266;10.542;2023-02-11T08:51:23;7.18;91.31
64961;SHT31;51487;52.266;10.542;2023-02-11T08:53:50;7.16;92.20
64961;SHT31;51487;52.266;10.542;2023-02-11T08:56:18;7.35;91.71
64961;SHT31;51487;52.266;10.542;2023-02-11T08:58:43;7.28;91.64
64961;SHT31;51487;52.266;10.542;2023-02-11T09:01:15;7.33;91.50
64961;SHT31;51487;52.266;10.542;2023-02-11T09:03:40;7.26;91.88
64961;SHT31;51487;52.266;10.542;2023-02-11T09:06:09;7.33;91.62
64961;SHT31;51487;52.266;10.542;2023-02-11T09:08:41;7.23;91.74
64961;SHT31;51487;52.266;10.542;2023-02-11T09:11:09;7.28;92.07
64961;SHT31;51487;52.266;10.542;2023-02-11T09:13:34;7.23;91.77
64961;SHT31;51487;52.266;10.542;2023-02-11T09:16:03;7.22;91.87
64961;SHT31;51487;52.266;10.542;2023-02-11T09:18:29;7.28;91.74
64961;SHT31;51487;52.266;10.542;2023-02-11T09:21:07;7.29;91.72
64961;SHT31;51487;52.266;10.542;2023-02-11T09:23:34;7.23;91.77
64961;SHT31;51487;52.266;10.542;2023-02-11T09:26:07;7.28;91.81
64961;SHT31;51487;52.266;10.542;2023-02-11T09:28:33;7.26;91.90
64961;SHT31;51487;52.266;10.542;2023-02-11T09:31:05;7.28;92.19
64961;SHT31;51487;52.266;10.542;2023-02-11T09:33:32;7.29;91.90
64961;SHT31;51487;52.266;10.542;2023-02-11T09:36:02;7.26;92.32
64961;SHT31;51487;52.266;10.542;2023-02-11T09:38:28;7.23;92.51
64961;SHT31;51487;52.266;10.542;2023-02-11T09:40:54;7.29;92.24
64961;SHT31;51487;52.266;10.542;2023-02-11T09:43:36;7.29;92.12
64961;SHT31;51487;52.266;10.542;2023-02-11T09:46:13;7.28;92.20
64961;SHT31;51487;52.266;10.542;2023-02-11T09:48:43;7.26;92.43
64961;SHT31;51487;52.266;10.542;2023-02-11T09:54:26;7.26;92.50
64961;SHT31;51487;52.266;10.542;2023-02-11T09:56:48;7.22;92.81
64961;SHT31;51487;52.266;10.542;2023-02-11T09:59:15;7.16;92.84
64961;SHT31;51487;52.266;10.542;2023-02-11T10:02:38;7.30;92.80
64961;SHT31;51487;52.266;10.542;2023-02-11T10:05:29;7.18;93.33
64961;SHT31;51487;52.266;10.542;2023-02-11T10:08:40;7.30;93.08
64961;SHT31;51487;52.266;10.542;2023-02-11T10:14:38;7.52;92.64
64961;SHT31;51487;52.266;10.542;2023-02-11T10:25:25;7.40;93.64
64961;SHT31;51487;52.266;10.542;2023-02-11T10:27:54;7.30;94.00
64961;SHT31;51487;52.266;10.542;2023-02-11T10:30:30;7.28;94.27
64961;SHT31;51487;52.266;10.542;2023-02-11T10:33:03;7.23;94.54
64961;SHT31;51487;52.266;10.542;2023-02-11T10:35:31;7.36;94.25
64961;SHT31;51487;52.266;10.542;2023-02-11T10:37:58;7.45;93.81
64961;SHT31;51487;52.266;10.542;2023-02-11T10:40:28;7.33;93.94
64961;SHT31;51487;52.266;10.542;2023-02-11T10:43:02;7.40;93.87
64961;SHT31;51487;52.266;10.542;2023-02-11T10:45:33;7.40;94.07
64961;SHT31;51487;52.266;10.542;2023-02-11T10:48:04;7.39;94.31
64961;SHT31;51487;52.266;10.542;2023-02-11T10:50:34;7.55;93.82
64961;SHT31;51487;52.266;10.542;2023-02-11T10:53:35;7.49;93.86
64961;SHT31;51487;52.266;10.542;2023-02-11T10:56:02;7.52;94.09
64961;SHT31;51487;52.266;10.542;2023-02-11T10:58:36;7.56;93.77
64961;SHT31;51487;52.266;10.542;2023-02-11T11:01:06;7.53;93.78
64961;SHT31;51487;52.266;10.542;2023-02-11T11:03:38;7.57;93.71
64961;SHT31;51487;52.266;10.542;2023-02-11T11:06:08;7.47;94.17
64961;SHT31;51487;52.266;10.542;2023-02-11T11:08:50;7.57;93.63
64961;SHT31;51487;52.266;10.542;2023-02-11T11:11:19;7.65;93.77
64961;SHT31;51487;52.266;10.542;2023-02-11T11:16:31;7.52;94.12
64961;SHT31;51487;52.266;10.542;2023-02-11T11:21:44;7.38;94.37
64961;SHT31;51487;52.266;10.542;2023-02-11T11:24:28;7.57;94.17
64961;SHT31;51487;52.266;10.542;2023-02-11T11:27:01;7.49;94.44
64961;SHT31;51487;52.266;10.542;2023-02-11T11:29:49;7.52;94.04
64961;SHT31;51487;52.266;10.542;2023-02-11T11:32:28;7.63;93.84
64961;SHT31;51487;52.266;10.542;2023-02-11T11:35:03;7.71;93.41
64961;SHT31;51487;52.266;10.542;2023-02-11T11:37:35;7.67;93.78
64961;SHT31;51487;52.266;10.542;2023-02-11T11:40:20;7.70;93.56
64961;SHT31;51487;52.266;10.542;2023-02-11T11:43:14;7.80;93.55
64961;SHT31;51487;52.266;10.542;2023-02-11T11:45:58;7.71;93.90
64961;SHT31;51487;52.266;10.542;2023-02-11T11:48:34;7.77;93.64
64961;SHT31;51487;52.266;10.542;2023-02-11T11:51:09;7.84;93.42
64961;SHT31;51487;52.266;10.542;2023-02-11T11:54:11;7.88;93.17
64961;SHT31;51487;52.266;10.542;2023-02-11T11:56:59;7.88;92.96
64961;SHT31;51487;52.266;10.542;2023-02-11T11:59:27;7.84;93.06
64961;SHT31;51487;52.266;10.542;2023-02-11T12:05:12;8.04;92.41
64961;SHT31;51487;52.266;10.542;2023-02-11T12:11:15;8.02;92.62
64961;SHT31;51487;52.266;10.542;2023-02-11T12:14:13;8.01;92.51
64961;SHT31;51487;52.266;10.542;2023-02-11T12:17:02;8.01;92.87
64961;SHT31;51487;52.266;10.542;2023-02-11T12:23:18;8.08;92.65
64961;SHT31;51487;52.266;10.542;2023-02-11T12:26:23;7.87;93.25
64961;SHT31;51487;52.266;10.542;2023-02-11T12:37:40;8.24;92.26
64961;SHT31;51487;52.266;10.542;2023-02-11T12:43:24;8.14;92.55
64961;SHT31;51487;52.266;10.542;2023-02-11T12:46:12;8.18;92.61
64961;SHT31;51487;52.266;10.542;2023-02-11T12:54:42;8.18;92.42
64961;SHT31;51487;52.266;10.542;2023-02-11T12:57:21;8.17;92.44
64961;SHT31;51487;52.266;10.542;2023-02-11T13:00:02;8.28;92.46
64961;SHT31;51487;52.266;10.542;2023-02-11T13:05:37;8.11;92.73
64961;SHT31;51487;52.266;10.542;2023-02-11T13:10:46;8.20;92.51
64961;SHT31;51487;52.266;10.542;2023-02-11T13:14:13;8.12;92.93
64961;SHT31;51487;52.266;10.542;2023-02-11T13:19:24;8.17;92.82
64961;SHT31;51487;52.266;10.542;2023-02-11T13:22:23;8.22;92.63
64961;SHT31;51487;52.266;10.542;2023-02-11T13:25:28;8.29;92.37
64961;SHT31;51487;52.266;10.542;2023-02-11T13:30:36;8.32;92.34
64961;SHT31;51487;52.266;10.542;2023-02-11T13:33:30;8.34;92.37
64961;SHT31;51487;52.266;10.542;2023-02-11T13:38:30;8.42;91.75
64961;SHT31;51487;52.266;10.542;2023-02-11T13:41:15;8.32;92.10
64961;SHT31;51487;52.266;10.542;2023-02-11T13:43:42;8.34;92.01
64961;SHT31;51487;52.266;10.542;2023-02-11T13:46:11;8.25;92.37
64961;SHT31;51487;52.266;10.542;2023-02-11T13:48:48;8.35;92.01
64961;SHT31;51487;52.266;10.542;2023-02-11T13:51:17;8.34;91.85
64961;SHT31;51487;52.266;10.542;2023-02-11T13:53:52;8.36;91.88
64961;SHT31;51487;52.266;10.542;2023-02-11T13:56:39;8.31;91.87
64961;SHT31;51487;52.266;10.542;2023-02-11T13:59:43;8.34;91.89
64961;SHT31;51487;52.266;10.542;2023-02-11T14:10:54;8.28;92.33
64961;SHT31;51487;52.266;10.542;2023-02-11T14:16:23;8.32;92.16
64961;SHT31;51487;52.266;10.542;2023-02-11T14:21:31;8.20;92.77
64961;SHT31;51487;52.266;10.542;2023-02-11T14:29:33;8.25;92.94
64961;SHT31;51487;52.266;10.542;2023-02-11T14:35:15;8.11;93.63
64961;SHT31;51487;52.266;10.542;2023-02-11T14:40:34;8.26;93.33
64961;SHT31;51487;52.266;10.542;2023-02-11T14:43:13;8.25;93.19
64961;SHT31;51487;52.266;10.542;2023-02-11T14:45:50;8.29;93.22
64961;SHT31;51487;52.266;10.542;2023-02-11T14:48:21;8.21;93.43
64961;SHT31;51487;52.266;10.542;2023-02-11T14:50:57;8.24;93.47
64961;SHT31;51487;52.266;10.542;2023-02-11T14:53:27;8.32;93.17
64961;SHT31;51487;52.266;10.542;2023-02-11T14:55:54;8.35;93.00
64961;SHT31;51487;52.266;10.542;2023-02-11T14:58:27;8.31;93.23
64961;SHT31;51487;52.266;10.542;2023-02-11T15:01:00;8.35;93.10
64961;SHT31;51487;52.266;10.542;2023-02-11T15:03:35;8.28;93.04
64961;SHT31;51487;52.266;10.542;2023-02-11T15:06:19;8.28;93.28
64961;SHT31;51487;52.266;10.542;2023-02-11T15:08:54;8.22;93.55
64961;SHT31;51487;52.266;10.542;2023-02-11T15:11:24;8.24;93.52
64961;SHT31;51487;52.266;10.542;2023-02-11T15:13:50;8.34;93.23
64961;SHT31;51487;52.266;10.542;2023-02-11T15:16:22;8.32;93.27
64961;SHT31;51487;52.266;10.542;2023-02-11T15:18:56;8.31;93.49
64961;SHT31;51487;52.266;10.542;2023-02-11T15:21:27;8.25;93.55
64961;SHT31;51487;52.266;10.542;2023-02-11T15:24:04;8.25;93.60
64961;SHT31;51487;52.266;10.542;2023-02-11T15:26:31;8.28;93.30
64961;SHT31;51487;52.266;10.542;2023-02-11T15:28:58;8.35;93.44
64961;SHT31;51487;52.266;10.542;2023-02-11T15:31:26;8.35;93.25
64961;SHT31;51487;52.266;10.542;2023-02-11T15:33:53;8.35;93.08
64961;SHT31;51487;52.266;10.542;2023-02-11T15:36:22;8.26;93.60
64961;SHT31;51487;52.266;10.542;2023-02-11T15:39:28;8.21;93.80
64961;SHT31;51487;52.266;10.542;2023-02-11T15:44:47;8.31;93.42
64961;SHT31;51487;52.266;10.542;2023-02-11T15:47:20;8.28;93.58
64961;SHT31;51487;52.266;10.542;2023-02-11T15:49:47;8.24;93.68
64961;SHT31;51487;52.266;10.542;2023-02-11T15:52:22;8.26;93.80
64961;SHT31;51487;52.266;10.542;2023-02-11T15:54:48;8.42;93.44
64961;SHT31;51487;52.266;10.542;2023-02-11T15:57:14;8.32;93.83
64961;SHT31;51487;52.266;10.542;2023-02-11T15:59:48;8.34;93.83
64961;SHT31;51487;52.266;10.542;2023-02-11T16:02:20;8.32;94.02
64961;SHT31;51487;52.266;10.542;2023-02-11T16:04:54;8.28;94.32
64961;SHT31;51487;52.266;10.542;2023-02-11T16:07:48;8.26;94.60
64961;SHT31;51487;52.266;10.542;2023-02-11T16:12:54;8.28;94.57
64961;SHT31;51487;52.266;10.542;2023-02-11T16:18:34;8.25;94.83
64961;SHT31;51487;52.266;10.542;2023-02-11T16:20:59;8.28;94.89
64961;SHT31;51487;52.266;10.542;2023-02-11T16:23:37;8.25;95.09
64961;SHT31;51487;52.266;10.542;2023-02-11T16:26:23;8.26;95.19
64961;SHT31;51487;52.266;10.542;2023-02-11T16:28:51;8.26;95.45
64961;SHT31;51487;52.266;10.542;2023-02-11T16:31:17;8.32;95.41
64961;SHT31;51487;52.266;10.542;2023-02-11T16:33:42;8.26;95.29
64961;SHT31;51487;52.266;10.542;2023-02-11T16:36:13;8.25;95.51
64961;SHT31;51487;52.266;10.542;2023-02-11T16:38:39;8.17;95.85
64961;SHT31;51487;52.266;10.542;2023-02-11T16:41:05;8.18;95.61
64961;SHT31;51487;52.266;10.542;2023-02-11T16:43:31;8.22;95.28
64961;SHT31;51487;52.266;10.542;2023-02-11T16:45:57;8.25;95.41
64961;SHT31;51487;52.266;10.542;2023-02-11T16:48:23;8.25;95.12
64961;SHT31;51487;52.266;10.542;2023-02-11T16:50:49;8.35;94.98
64961;SHT31;51487;52.266;10.542;2023-02-11T16:53:21;8.28;95.06
64961;SHT31;51487;52.266;10.542;2023-02-11T16:55:48;8.32;95.05
64961;SHT31;51487;52.266;10.542;2023-02-11T16:58:14;8.22;95.49
64961;SHT31;51487;52.266;10.542;2023-02-11T17:00:40;8.36;95.05
64961;SHT31;51487;52.266;10.542;2023-02-11T17:03:07;8.28;95.22
64961;SHT31;51487;52.266;10.542;2023-02-11T17:05:34;8.32;95.31
64961;SHT31;51487;52.266;10.542;2023-02-11T17:08:00;8.29;95.38
64961;SHT31;51487;52.266;10.542;2023-02-11T17:10:28;8.42;95.41
64961;SHT31;51487;52.266;10.542;2023-02-11T17:12:55;8.32;95.49
64961;SHT31;51487;52.266;10.542;2023-02-11T17:15:20;8.31;95.62
64961;SHT31;51487;52.266;10.542;2023-02-11T17:17:46;8.34;95.69
64961;SHT31;51487;52.266;10.542;2023-02-11T17:20:13;8.26;95.85
64961;SHT31;51487;52.266;10.542;2023-02-11T17:22:39;8.26;95.70
64961;SHT31;51487;52.266;10.542;2023-02-11T17:25:05;8.26;95.84
64961;SHT31;51487;52.266;10.542;2023-02-11T17:27:31;8.28;96.11
64961;SHT31;51487;52.266;10.542;2023-02-11T17:29:57;8.32;96.06
64961;SHT31;51487;52.266;10.542;2023-02-11T17:32:22;8.38;95.88
64961;SHT31;51487;52.266;10.542;2023-02-11T17:34:48;8.29;96.12
64961;SHT31;51487;52.266;10.542;2023-02-11T17:37:13;8.44;95.79
64961;SHT31;51487;52.266;10.542;2023-02-11T17:39:39;8.44;95.48
64961;SHT31;51487;52.266;10.542;2023-02-11T17:42:06;8.31;95.86
64961;SHT31;51487;52.266;10.542;2023-02-11T17:44:33;8.41;95.72
64961;SHT31;51487;52.266;10.542;2023-02-11T17:46:58;8.53;95.42
64961;SHT31;51487;52.266;10.542;2023-02-11T17:49:24;8.48;95.28
64961;SHT31;51487;52.266;10.542;2023-02-11T17:51:49;8.57;95.15
64961;SHT31;51487;52.266;10.542;2023-02-11T17:54:17;8.57;95.08